sensor_id;sensor_type;location;lat;lon;timestamp;pressure;altitude;pressure_sealevel;temperature;humidity
13013;BME280;22580;57.670;12.006;2024-02-16T00:01:10;100776.91;;;14.75;100.00
13013;BME280;22580;57.670;12.006;2024-02-16T00:03:38;100771.31;;;14.88;100.00
13013;BME280;22580;57.670;12.006;2024-02-16T00:06:05;100758.25;;;14.83;100.00
13013;BME280;22580;57.670;12.006;2024-02-16T00:08:32;100764.88;;;15.09;100.00
13013;BME280;22580;57.670;12.006;2024-02-16T00:11:01;100750.25;;;15.02;100.00
13013;BME280;22580;57.670;12.006;2024-02-16T00:13:28;100743.88;;;15.03;100.00
13013;BME280;22580;57.670;12.006;2024-02-16T00:15:55;100752.94;;;15.02;100.00
13013;BME280;22580;57.670;12.006;2024-02-16T00:18:22;100746.41;;;14.95;100.00
13013;BME280;22580;57.670;12.006;2024-02-16T00:20:50;100742.38;;;15.20;100.00
13013;BME280;22580;57.670;12.006;2024-02-16T00:23:17;100741.25;;;15.32;100.00
13013;BME280;22580;57.670;12.006;2024-02-16T00:25:47;100724.31;;;15.01;100.00
13013;BME280;22580;57.670;12.006;2024-02-16T00:28:16;100733.41;;;15.10;100.00
13013;BME280;22580;57.670;12.006;2024-02-16T00:30:44;100732.88;;;15.26;100.00
13013;BME280;22580;57.670;12.006;2024-02-16T00:33:12;100725.47;;;15.08;100.00
13013;BME280;22580;57.670;12.006;2024-02-16T00:35:39;100717.69;;;15.15;100.00
13013;BME280;22580;57.670;12.006;2024-02-16T00:38:06;100723.69;;;15.38;100.00
13013;BME280;22580;57.670;12.006;2024-02-16T00:40:33;100719.31;;;15.47;100.00
13013;BME280;22580;57.670;12.006;2024-02-16T00:43:00;100721.84;;;15.38;100.00
13013;BME280;22580;57.670;12.006;2024-02-16T00:45:28;100721.84;;;15.29;100.00
13013;BME280;22580;57.670;12.006;2024-02-16T00:47:55;100736.03;;;15.40;100.00
13013;BME280;22580;57.670;12.006;2024-02-16T00:50:23;100722.13;;;15.64;100.00
13013;BME280;22580;57.670;12.006;2024-02-16T00:52:51;100724.41;;;15.40;100.00
13013;BME280;22580;57.670;12.006;2024-02-16T00:55:18;100734.03;;;15.43;100.00
13013;BME280;22580;57.670;12.006;2024-02-16T00:57:45;100730.63;;;15.31;100.00
13013;BME280;22580;57.670;12.006;2024-02-16T01:00:16;100744.25;;;15.39;100.00
13013;BME280;22580;57.670;12.006;2024-02-16T01:02:47;100730.97;;;14.97;100.00
13013;BME280;22580;57.670;12.006;2024-02-16T01:05:15;100733.19;;;15.32;100.00
13013;BME280;22580;57.670;12.006;2024-02-16T01:07:43;100725.38;;;15.39;100.00
13013;BME280;22580;57.670;12.006;2024-02-16T01:10:11;100722.69;;;15.29;100.00
13013;BME280;22580;57.670;12.006;2024-02-16T01:12:39;100733.31;;;15.31;100.00
13013;BME280;22580;57.670;12.006;2024-02-16T01:15:06;100726.66;;;15.45;100.00
13013;BME280;22580;57.670;12.006;2024-02-16T01:17:34;100716.03;;;15.33;100.00
13013;BME280;22580;57.670;12.006;2024-02-16T01:20:05;100718.72;;;15.33;100.00
13013;BME280;22580;57.670;12.006;2024-02-16T01:22:35;100718.00;;;15.41;100.00
13013;BME280;22580;57.670;12.006;2024-02-16T01:25:03;100704.97;;;15.46;100.00
13013;BME280;22580;57.670;12.006;2024-02-16T01:27:30;100713.06;;;15.46;100.00
13013;BME280;22580;57.670;12.006;2024-02-16T01:29:57;100700.72;;;15.53;100.00
13013;BME280;22580;57.670;12.006;2024-02-16T01:32:25;100689.56;;;15.58;100.00
13013;BME280;22580;57.670;12.006;2024-02-16T01:34:52;100697.72;;;15.85;100.00
13013;BME280;22580;57.670;12.006;2024-02-16T01:37:20;100698.56;;;16.05;100.00
13013;BME280;22580;57.670;12.006;2024-02-16T01:39:47;100691.88;;;16.09;100.00
13013;BME280;22580;57.670;12.006;2024-02-16T01:42:14;100673.16;;;16.08;100.00
13013;BME280;22580;57.670;12.006;2024-02-16T01:44:42;100672.28;;;16.07;100.00
13013;BME280;22580;57.670;12.006;2024-02-16T01:47:09;100676.84;;;16.06;100.00
13013;BME280;22580;57.670;12.006;2024-02-16T01:49:36;100676.63;;;16.27;100.00
13013;BME280;22580;57.670;12.006;2024-02-16T01:52:04;100671.50;;;16.34;100.00
13013;BME280;22580;57.670;12.006;2024-02-16T01:54:34;100667.28;;;16.49;100.00
13013;BME280;22580;57.670;12.006;2024-02-16T01:57:02;100663.75;;;16.49;100.00
13013;BME280;22580;57.670;12.006;2024-02-16T01:59:29;100664.41;;;16.60;100.00
13013;BME280;22580;57.670;12.006;2024-02-16T02:01:57;100659.97;;;16.69;100.00
13013;BME280;22580;57.670;12.006;2024-02-16T02:04:24;100663.41;;;16.61;100.00
13013;BME280;22580;57.670;12.006;2024-02-16T02:06:51;100659.56;;;16.64;100.00
13013;BME280;22580;57.670;12.006;2024-02-16T02:09:18;100665.34;;;16.79;100.00
13013;BME280;22580;57.670;12.006;2024-02-16T02:11:47;100652.38;;;16.82;100.00
13013;BME280;22580;57.670;12.006;2024-02-16T02:14:14;100660.28;;;16.93;100.00
13013;BME280;22580;57.670;12.006;2024-02-16T02:16:42;100669.13;;;16.86;100.00
13013;BME280;22580;57.670;12.006;2024-02-16T02:19:08;100665.44;;;16.87;100.00
13013;BME280;22580;57.670;12.006;2024-02-16T02:21:37;100660.50;;;17.00;100.00
13013;BME280;22580;57.670;12.006;2024-02-16T02:24:06;100655.94;;;16.83;100.00
13013;BME280;22580;57.670;12.006;2024-02-16T02:26:34;100658.69;;;16.73;100.00
13013;BME280;22580;57.670;12.006;2024-02-16T02:29:01;100659.78;;;16.80;100.00
13013;BME280;22580;57.670;12.006;2024-02-16T02:31:30;100649.75;;;16.73;100.00
13013;BME280;22580;57.670;12.006;2024-02-16T02:33:57;100656.31;;;16.60;100.00
13013;BME280;22580;57.670;12.006;2024-02-16T02:36:24;100653.88;;;16.67;100.00
13013;BME280;22580;57.670;12.006;2024-02-16T02:38:51;100619.66;;;16.58;100.00
13013;BME280;22580;57.670;12.006;2024-02-16T02:41:20;100648.34;;;16.68;100.00
13013;BME280;22580;57.670;12.006;2024-02-16T02:43:47;100646.13;;;16.82;100.00
13013;BME280;22580;57.670;12.006;2024-02-16T02:46:15;100638.88;;;16.82;100.00
13013;BME280;22580;57.670;12.006;2024-02-16T02:48:43;100654.94;;;16.84;100.00
13013;BME280;22580;57.670;12.006;2024-02-16T02:51:10;100643.50;;;16.72;100.00
13013;BME280;22580;57.670;12.006;2024-02-16T02:53:38;100647.44;;;16.78;100.00
13013;BME280;22580;57.670;12.006;2024-02-16T02:56:05;100639.47;;;16.76;100.00
13013;BME280;22580;57.670;12.006;2024-02-16T02:58:34;100631.88;;;16.89;100.00
13013;BME280;22580;57.670;12.006;2024-02-16T03:01:01;100625.56;;;16.98;100.00
13013;BME280;22580;57.670;12.006;2024-02-16T03:03:28;100634.13;;;16.94;100.00
13013;BME280;22580;57.670;12.006;2024-02-16T03:05:56;100631.41;;;16.94;100.00
13013;BME280;22580;57.670;12.006;2024-02-16T03:08:23;100630.63;;;16.84;100.00
13013;BME280;22580;57.670;12.006;2024-02-16T03:10:51;100625.78;;;16.87;100.00
13013;BME280;22580;57.670;12.006;2024-02-16T03:13:18;100625.09;;;16.85;100.00
13013;BME280;22580;57.670;12.006;2024-02-16T03:15:47;100612.66;;;16.92;100.00
13013;BME280;22580;57.670;12.006;2024-02-16T03:18:14;100614.59;;;17.00;100.00
13013;BME280;22580;57.670;12.006;2024-02-16T03:20:41;100614.53;;;17.10;100.00
13013;BME280;22580;57.670;12.006;2024-02-16T03:23:11;100614.69;;;17.26;100.00
13013;BME280;22580;57.670;12.006;2024-02-16T03:25:38;100609.06;;;17.19;100.00
13013;BME280;22580;57.670;12.006;2024-02-16T03:28:05;100609.16;;;17.35;100.00
13013;BME280;22580;57.670;12.006;2024-02-16T03:30:32;100595.25;;;17.04;100.00
13013;BME280;22580;57.670;12.006;2024-02-16T03:33:01;100602.56;;;16.94;100.00
13013;BME280;22580;57.670;12.006;2024-02-16T03:35:28;100600.09;;;17.01;100.00
13013;BME280;22580;57.670;12.006;2024-02-16T03:37:55;100598.56;;;16.98;100.00
13013;BME280;22580;57.670;12.006;2024-02-16T03:40:24;100602.25;;;17.15;100.00
13013;BME280;22580;57.670;12.006;2024-02-16T03:42:52;100595.00;;;16.98;100.00
13013;BME280;22580;57.670;12.006;2024-02-16T03:45:19;100598.22;;;16.56;100.00
13013;BME280;22580;57.670;12.006;2024-02-16T03:47:47;100600.78;;;16.85;100.00
13013;BME280;22580;57.670;12.006;2024-02-16T03:50:15;100593.91;;;16.91;100.00
13013;BME280;22580;57.670;12.006;2024-02-16T03:52:42;100594.53;;;17.02;100.00
13013;BME280;22580;57.670;12.006;2024-02-16T03:55:09;100590.84;;;17.03;100.00
13013;BME280;22580;57.670;12.006;2024-02-16T03:57:37;100588.84;;;17.06;100.00
13013;BME280;22580;57.670;12.006;2024-02-16T04:00:05;100583.91;;;17.01;100.00
13013;BME280;22580;57.670;12.006;2024-02-16T04:02:32;100583.50;;;16.96;100.00
13013;BME280;22580;57.670;12.006;2024-02-16T04:04:59;100582.97;;;17.10;100.00
13013;BME280;22580;57.670;12.006;2024-02-16T04:07:30;100576.72;;;17.10;100.00
13013;BME280;22580;57.670;12.006;2024-02-16T04:09:57;100580.44;;;17.09;100.00
13013;BME280;22580;57.670;12.006;2024-02-16T04:12:25;100571.63;;;16.89;100.00
13013;BME280;22580;57.670;12.006;2024-02-16T04:14:52;100583.13;;;16.91;100.00
13013;BME280;22580;57.670;12.006;2024-02-16T04:17:20;100585.38;;;16.95;100.00
13013;BME280;22580;57.670;12.006;2024-02-16T04:19:47;100573.72;;;16.95;100.00
13013;BME280;22580;57.670;12.006;2024-02-16T04:22:14;100579.34;;;17.01;100.00
13013;BME280;22580;57.670;12.006;2024-02-16T04:24:42;100578.97;;;16.96;100.00
13013;BME280;22580;57.670;12.006;2024-02-16T04:27:09;100573.72;;;17.13;100.00
13013;BME280;22580;57.670;12.006;2024-02-16T04:29:36;100570.84;;;16.96;100.00
13013;BME280;22580;57.670;12.006;2024-02-16T04:32:04;100557.13;;;17.08;100.00
13013;BME280;22580;57.670;12.006;2024-02-16T04:34:31;100559.44;;;16.85;100.00
13013;BME280;22580;57.670;12.006;2024-02-16T04:36:58;100561.91;;;16.96;100.00
13013;BME280;22580;57.670;12.006;2024-02-16T04:39:25;100561.97;;;17.04;100.00
13013;BME280;22580;57.670;12.006;2024-02-16T04:41:56;100556.97;;;16.91;100.00
13013;BME280;22580;57.670;12.006;2024-02-16T04:44:23;100546.31;;;16.90;100.00
13013;BME280;22580;57.670;12.006;2024-02-16T04:46:51;100549.19;;;16.88;100.00
13013;BME280;22580;57.670;12.006;2024-02-16T04:49:20;100551.19;;;16.86;100.00
13013;BME280;22580;57.670;12.006;2024-02-16T04:51:48;100547.03;;;16.92;100.00
13013;BME280;22580;57.670;12.006;2024-02-16T04:54:15;100555.03;;;16.84;100.00
13013;BME280;22580;57.670;12.006;2024-02-16T04:56:42;100556.50;;;16.96;100.00
13013;BME280;22580;57.670;12.006;2024-02-16T04:59:11;100553.66;;;16.80;100.00
13013;BME280;22580;57.670;12.006;2024-02-16T05:01:38;100539.69;;;17.02;100.00
13013;BME280;22580;57.670;12.006;2024-02-16T05:04:05;100539.16;;;16.81;100.00
13013;BME280;22580;57.670;12.006;2024-02-16T05:06:32;100544.25;;;16.56;100.00
13013;BME280;22580;57.670;12.006;2024-02-16T05:08:59;100530.16;;;16.62;100.00
13013;BME280;22580;57.670;12.006;2024-02-16T05:11:26;100530.31;;;16.61;100.00
13013;BME280;22580;57.670;12.006;2024-02-16T05:13:55;100524.06;;;16.60;100.00
13013;BME280;22580;57.670;12.006;2024-02-16T05:16:23;100524.66;;;16.82;100.00
13013;BME280;22580;57.670;12.006;2024-02-16T05:18:51;100513.25;;;16.70;100.00
13013;BME280;22580;57.670;12.006;2024-02-16T05:21:17;100514.38;;;16.67;100.00
13013;BME280;22580;57.670;12.006;2024-02-16T05:23:45;100518.72;;;16.78;100.00
13013;BME280;22580;57.670;12.006;2024-02-16T05:26:12;100518.25;;;16.83;100.00
13013;BME280;22580;57.670;12.006;2024-02-16T05:28:39;100523.78;;;16.46;100.00
13013;BME280;22580;57.670;12.006;2024-02-16T05:31:13;100517.34;;;16.47;100.00
13013;BME280;22580;57.670;12.006;2024-02-16T05:33:44;100517.13;;;16.58;100.00
13013;BME280;22580;57.670;12.006;2024-02-16T05:36:11;100519.53;;;16.61;100.00
13013;BME280;22580;57.670;12.006;2024-02-16T05:38:39;100519.22;;;16.64;100.00
13013;BME280;22580;57.670;12.006;2024-02-16T05:41:08;100517.69;;;16.97;100.00
13013;BME280;22580;57.670;12.006;2024-02-16T05:43:36;100514.53;;;17.01;100.00
13013;BME280;22580;57.670;12.006;2024-02-16T05:46:04;100515.09;;;17.31;100.00
13013;BME280;22580;57.670;12.006;2024-02-16T05:48:32;100505.81;;;17.33;100.00
13013;BME280;22580;57.670;12.006;2024-02-16T05:51:04;100498.34;;;17.01;100.00
13013;BME280;22580;57.670;12.006;2024-02-16T05:53:31;100497.41;;;16.93;100.00
13013;BME280;22580;57.670;12.006;2024-02-16T05:56:00;100475.13;;;16.73;100.00
13013;BME280;22580;57.670;12.006;2024-02-16T05:58:27;100483.91;;;17.11;100.00
13013;BME280;22580;57.670;12.006;2024-02-16T06:00:54;100490.50;;;16.73;100.00
13013;BME280;22580;57.670;12.006;2024-02-16T06:03:23;100484.53;;;16.87;100.00
13013;BME280;22580;57.670;12.006;2024-02-16T06:05:50;100472.59;;;16.71;100.00
13013;BME280;22580;57.670;12.006;2024-02-16T06:08:19;100479.22;;;16.95;100.00
13013;BME280;22580;57.670;12.006;2024-02-16T06:10:45;100467.81;;;16.83;100.00
13013;BME280;22580;57.670;12.006;2024-02-16T06:13:16;100479.84;;;16.89;100.00
13013;BME280;22580;57.670;12.006;2024-02-16T06:15:43;100476.13;;;16.90;100.00
13013;BME280;22580;57.670;12.006;2024-02-16T06:18:11;100467.19;;;16.71;100.00
13013;BME280;22580;57.670;12.006;2024-02-16T06:20:39;100479.84;;;16.89;100.00
13013;BME280;22580;57.670;12.006;2024-02-16T06:23:07;100464.47;;;16.89;100.00
13013;BME280;22580;57.670;12.006;2024-02-16T06:25:36;100475.81;;;16.93;100.00
13013;BME280;22580;57.670;12.006;2024-02-16T06:28:04;100472.66;;;16.97;100.00
13013;BME280;22580;57.670;12.006;2024-02-16T06:30:31;100481.28;;;17.01;100.00
13013;BME280;22580;57.670;12.006;2024-02-16T06:32:59;100480.22;;;16.94;100.00
13013;BME280;22580;57.670;12.006;2024-02-16T06:35:29;100488.88;;;16.80;100.00
13013;BME280;22580;57.670;12.006;2024-02-16T06:37:56;100484.34;;;17.24;100.00
13013;BME280;22580;57.670;12.006;2024-02-16T06:40:23;100492.19;;;17.43;100.00
13013;BME280;22580;57.670;12.006;2024-02-16T06:42:53;100482.78;;;17.21;100.00
13013;BME280;22580;57.670;12.006;2024-02-16T06:45:22;100469.28;;;17.21;100.00
13013;BME280;22580;57.670;12.006;2024-02-16T06:47:51;100474.13;;;17.44;100.00
13013;BME280;22580;57.670;12.006;2024-02-16T06:50:18;100470.06;;;17.40;100.00
13013;BME280;22580;57.670;12.006;2024-02-16T06:52:44;100474.69;;;17.81;100.00
13013;BME280;22580;57.670;12.006;2024-02-16T06:55:12;100462.09;;;17.38;100.00
13013;BME280;22580;57.670;12.006;2024-02-16T06:57:39;100466.59;;;17.55;100.00
13013;BME280;22580;57.670;12.006;2024-02-16T07:00:11;100467.59;;;17.54;100.00
13013;BME280;22580;57.670;12.006;2024-02-16T07:02:38;100460.13;;;17.48;100.00
13013;BME280;22580;57.670;12.006;2024-02-16T07:05:07;100460.50;;;17.53;100.00
13013;BME280;22580;57.670;12.006;2024-02-16T07:07:34;100476.59;;;17.63;100.00
13013;BME280;22580;57.670;12.006;2024-02-16T07:10:01;100489.22;;;17.80;100.00
13013;BME280;22580;57.670;12.006;2024-02-16T07:12:30;100483.38;;;17.93;100.00
13013;BME280;22580;57.670;12.006;2024-02-16T07:14:59;100477.97;;;17.93;100.00
13013;BME280;22580;57.670;12.006;2024-02-16T07:17:29;100472.50;;;17.77;100.00
13013;BME280;22580;57.670;12.006;2024-02-16T07:19:56;100484.59;;;17.98;100.00
13013;BME280;22580;57.670;12.006;2024-02-16T07:22:23;100484.56;;;17.90;100.00
13013;BME280;22580;57.670;12.006;2024-02-16T07:24:50;100477.13;;;17.92;100.00
13013;BME280;22580;57.670;12.006;2024-02-16T07:27:18;100461.63;;;17.68;100.00
13013;BME280;22580;57.670;12.006;2024-02-16T07:29:45;100469.94;;;17.75;100.00
13013;BME280;22580;57.670;12.006;2024-02-16T07:32:12;100481.38;;;18.03;100.00
13013;BME280;22580;57.670;12.006;2024-02-16T07:34:41;100480.16;;;17.89;100.00
13013;BME280;22580;57.670;12.006;2024-02-16T07:37:12;100480.41;;;18.12;100.00
13013;BME280;22580;57.670;12.006;2024-02-16T07:39:40;100465.78;;;17.89;100.00
13013;BME280;22580;57.670;12.006;2024-02-16T07:42:07;100471.75;;;18.00;100.00
13013;BME280;22580;57.670;12.006;2024-02-16T07:44:34;100474.66;;;18.07;100.00
13013;BME280;22580;57.670;12.006;2024-02-16T07:47:01;100471.28;;;18.13;100.00
13013;BME280;22580;57.670;12.006;2024-02-16T07:49:28;100469.94;;;18.25;100.00
13013;BME280;22580;57.670;12.006;2024-02-16T07:51:57;100454.03;;;18.14;100.00
13013;BME280;22580;57.670;12.006;2024-02-16T07:54:24;100465.22;;;18.19;100.00
13013;BME280;22580;57.670;12.006;2024-02-16T07:56:51;100446.72;;;17.98;100.00
13013;BME280;22580;57.670;12.006;2024-02-16T07:59:18;100443.81;;;17.92;100.00
13013;BME280;22580;57.670;12.006;2024-02-16T08:01:45;100445.91;;;18.06;100.00
13013;BME280;22580;57.670;12.006;2024-02-16T08:04:12;100459.91;;;18.01;100.00
13013;BME280;22580;57.670;12.006;2024-02-16T08:06:39;100453.03;;;18.23;100.00
13013;BME280;22580;57.670;12.006;2024-02-16T08:09:07;100438.81;;;18.21;100.00
13013;BME280;22580;57.670;12.006;2024-02-16T08:11:37;100433.75;;;18.18;100.00
13013;BME280;22580;57.670;12.006;2024-02-16T08:14:04;100443.03;;;18.08;100.00
13013;BME280;22580;57.670;12.006;2024-02-16T08:16:33;100461.66;;;18.19;100.00
13013;BME280;22580;57.670;12.006;2024-02-16T08:19:00;100447.78;;;18.22;100.00
13013;BME280;22580;57.670;12.006;2024-02-16T08:21:28;100448.31;;;18.42;100.00
13013;BME280;22580;57.670;12.006;2024-02-16T08:23:55;100448.66;;;18.47;100.00
13013;BME280;22580;57.670;12.006;2024-02-16T08:26:23;100403.69;;;18.46;100.00
13013;BME280;22580;57.670;12.006;2024-02-16T08:28:51;100414.50;;;18.54;100.00
13013;BME280;22580;57.670;12.006;2024-02-16T08:31:18;100427.34;;;18.44;100.00
13013;BME280;22580;57.670;12.006;2024-02-16T08:33:45;100430.91;;;18.36;100.00
13013;BME280;22580;57.670;12.006;2024-02-16T08:36:12;100439.69;;;18.30;100.00
13013;BME280;22580;57.670;12.006;2024-02-16T08:38:39;100412.44;;;18.31;100.00
13013;BME280;22580;57.670;12.006;2024-02-16T08:41:06;100407.22;;;18.30;100.00
13013;BME280;22580;57.670;12.006;2024-02-16T08:43:35;100399.25;;;18.20;100.00
13013;BME280;22580;57.670;12.006;2024-02-16T08:46:02;100428.34;;;18.34;100.00
13013;BME280;22580;57.670;12.006;2024-02-16T08:48:29;100433.75;;;18.34;100.00
13013;BME280;22580;57.670;12.006;2024-02-16T08:50:56;100444.75;;;18.25;100.00
13013;BME280;22580;57.670;12.006;2024-02-16T08:53:24;100429.69;;;18.14;100.00
13013;BME280;22580;57.670;12.006;2024-02-16T08:55:52;100422.91;;;18.02;100.00
13013;BME280;22580;57.670;12.006;2024-02-16T08:58:19;100435.69;;;17.84;100.00
13013;BME280;22580;57.670;12.006;2024-02-16T09:00:47;100433.69;;;17.94;100.00
13013;BME280;22580;57.670;12.006;2024-02-16T09:03:15;100421.59;;;18.14;100.00
13013;BME280;22580;57.670;12.006;2024-02-16T09:05:42;100417.66;;;18.00;100.00
13013;BME280;22580;57.670;12.006;2024-02-16T09:08:10;100402.09;;;18.02;100.00
13013;BME280;22580;57.670;12.006;2024-02-16T09:10:37;100400.59;;;18.00;100.00
13013;BME280;22580;57.670;12.006;2024-02-16T09:13:04;100356.81;;;17.54;100.00
13013;BME280;22580;57.670;12.006;2024-02-16T09:15:31;100370.06;;;17.65;100.00
13013;BME280;22580;57.670;12.006;2024-02-16T09:18:00;100354.41;;;17.43;100.00
13013;BME280;22580;57.670;12.006;2024-02-16T09:20:27;100426.78;;;17.99;100.00
13013;BME280;22580;57.670;12.006;2024-02-16T09:22:54;100363.16;;;17.71;100.00
13013;BME280;22580;57.670;12.006;2024-02-16T09:25:20;100409.19;;;17.95;100.00
13013;BME280;22580;57.670;12.006;2024-02-16T09:27:48;100398.06;;;18.07;100.00
13013;BME280;22580;57.670;12.006;2024-02-16T09:30:16;100409.19;;;17.95;100.00
13013;BME280;22580;57.670;12.006;2024-02-16T09:32:43;100391.63;;;18.24;100.00
13013;BME280;22580;57.670;12.006;2024-02-16T09:35:11;100364.06;;;18.04;100.00
13013;BME280;22580;57.670;12.006;2024-02-16T09:37:39;100394.88;;;18.35;100.00
13013;BME280;22580;57.670;12.006;2024-02-16T09:40:07;100399.25;;;18.28;100.00
13013;BME280;22580;57.670;12.006;2024-02-16T09:42:37;100393.53;;;18.40;100.00
13013;BME280;22580;57.670;12.006;2024-02-16T09:45:07;100371.19;;;18.05;100.00
13013;BME280;22580;57.670;12.006;2024-02-16T09:47:35;100377.09;;;18.09;100.00
13013;BME280;22580;57.670;12.006;2024-02-16T09:50:04;100355.44;;;17.92;100.00
13013;BME280;22580;57.670;12.006;2024-02-16T09:52:38;100388.59;;;18.11;100.00
13013;BME280;22580;57.670;12.006;2024-02-16T09:55:11;100384.38;;;18.08;100.00
13013;BME280;22580;57.670;12.006;2024-02-16T09:57:39;100368.00;;;18.18;100.00
13013;BME280;22580;57.670;12.006;2024-02-16T10:00:07;100351.75;;;18.18;100.00
13013;BME280;22580;57.670;12.006;2024-02-16T10:02:40;100366.09;;;18.26;100.00
13013;BME280;22580;57.670;12.006;2024-02-16T10:05:13;100384.38;;;18.08;100.00
13013;BME280;22580;57.670;12.006;2024-02-16T10:07:43;100386.72;;;18.03;100.00
13013;BME280;22580;57.670;12.006;2024-02-16T10:10:20;100388.91;;;17.99;100.00
13013;BME280;22580;57.670;12.006;2024-02-16T10:12:47;100369.94;;;17.83;100.00
13013;BME280;22580;57.670;12.006;2024-02-16T10:15:19;100398.41;;;18.04;100.00
13013;BME280;22580;57.670;12.006;2024-02-16T10:17:57;100389.78;;;18.08;100.00
13013;BME280;22580;57.670;12.006;2024-02-16T10:20:24;100394.34;;;18.08;100.00
13013;BME280;22580;57.670;12.006;2024-02-16T10:23:04;100390.81;;;18.15;100.00
13013;BME280;22580;57.670;12.006;2024-02-16T10:25:31;100400.28;;;18.19;100.00
13013;BME280;22580;57.670;12.006;2024-02-16T10:27:58;100380.25;;;17.80;100.00
13013;BME280;22580;57.670;12.006;2024-02-16T10:30:29;100386.34;;;17.90;100.00
13013;BME280;22580;57.670;12.006;2024-02-16T10:32:57;100380.47;;;18.02;100.00
13013;BME280;22580;57.670;12.006;2024-02-16T10:35:24;100367.44;;;17.98;100.00
13013;BME280;22580;57.670;12.006;2024-02-16T10:37:52;100378.25;;;17.98;100.00
13013;BME280;22580;57.670;12.006;2024-02-16T10:40:22;100338.34;;;17.92;100.00
13013;BME280;22580;57.670;12.006;2024-02-16T10:42:50;100368.97;;;18.00;100.00
13013;BME280;22580;57.670;12.006;2024-02-16T10:45:17;100359.34;;;17.98;100.00
13013;BME280;22580;57.670;12.006;2024-02-16T10:47:44;100356.81;;;18.05;100.00
13013;BME280;22580;57.670;12.006;2024-02-16T10:50:12;100370.00;;;18.08;100.00
13013;BME280;22580;57.670;12.006;2024-02-16T10:52:41;100378.28;;;18.06;100.00
13013;BME280;22580;57.670;12.006;2024-02-16T10:55:10;100345.78;;;17.82;100.00
13013;BME280;22580;57.670;12.006;2024-02-16T10:57:45;100364.25;;;18.11;100.00
13013;BME280;22580;57.670;12.006;2024-02-16T11:00:15;100377.25;;;17.99;100.00
13013;BME280;22580;57.670;12.006;2024-02-16T11:02:53;100376.72;;;17.87;100.00
13013;BME280;22580;57.670;12.006;2024-02-16T11:05:32;100368.81;;;18.02;100.00
13013;BME280;22580;57.670;12.006;2024-02-16T11:08:03;100368.41;;;17.81;100.00
13013;BME280;22580;57.670;12.006;2024-02-16T11:10:31;100361.00;;;17.91;100.00
13013;BME280;22580;57.670;12.006;2024-02-16T11:13:03;100309.44;;;17.84;100.00
13013;BME280;22580;57.670;12.006;2024-02-16T11:15:32;100362.53;;;17.93;100.00
13013;BME280;22580;57.670;12.006;2024-02-16T11:18:00;100353.41;;;17.94;100.00
13013;BME280;22580;57.670;12.006;2024-02-16T11:20:36;100344.44;;;17.94;100.00
13013;BME280;22580;57.670;12.006;2024-02-16T11:23:08;100329.41;;;17.91;100.00
13013;BME280;22580;57.670;12.006;2024-02-16T11:25:36;100349.84;;;17.94;100.00
13013;BME280;22580;57.670;12.006;2024-02-16T11:28:05;100340.56;;;17.88;100.00
13013;BME280;22580;57.670;12.006;2024-02-16T11:30:33;100346.75;;;17.73;100.00
13013;BME280;22580;57.670;12.006;2024-02-16T11:33:01;100339.59;;;17.63;100.00
13013;BME280;22580;57.670;12.006;2024-02-16T11:35:28;100344.16;;;17.63;100.00
13013;BME280;22580;57.670;12.006;2024-02-16T11:37:58;100345.25;;;17.78;100.00
13013;BME280;22580;57.670;12.006;2024-02-16T11:40:28;100326.50;;;17.85;100.00
13013;BME280;22580;57.670;12.006;2024-02-16T11:42:59;100311.13;;;17.85;100.00
13013;BME280;22580;57.670;12.006;2024-02-16T11:45:28;100312.34;;;17.91;100.00
13013;BME280;22580;57.670;12.006;2024-02-16T11:48:06;100332.31;;;18.14;100.00
13013;BME280;22580;57.670;12.006;2024-02-16T11:50:33;100324.53;;;18.11;100.00
13013;BME280;22580;57.670;12.006;2024-02-16T11:52:59;100290.38;;;17.94;100.00
13013;BME280;22580;57.670;12.006;2024-02-16T11:55:26;100298.47;;;17.94;100.00
13013;BME280;22580;57.670;12.006;2024-02-16T11:57:53;100303.22;;;18.16;100.00
13013;BME280;22580;57.670;12.006;2024-02-16T12:00:22;100306.44;;;18.20;100.00
13013;BME280;22580;57.670;12.006;2024-02-16T12:03:00;100308.47;;;18.18;100.00
13013;BME280;22580;57.670;12.006;2024-02-16T12:05:28;100302.22;;;18.09;100.00
13013;BME280;22580;57.670;12.006;2024-02-16T12:07:57;100253.50;;;17.68;100.00
13013;BME280;22580;57.670;12.006;2024-02-16T12:10:25;100259.75;;;17.69;100.00
13013;BME280;22580;57.670;12.006;2024-02-16T12:12:55;100272.28;;;17.86;100.00
13013;BME280;22580;57.670;12.006;2024-02-16T12:15:23;100277.00;;;17.92;100.00
13013;BME280;22580;57.670;12.006;2024-02-16T12:18:00;100213.75;;;17.61;100.00
13013;BME280;22580;57.670;12.006;2024-02-16T12:20:29;100173.53;;;17.42;100.00
13013;BME280;22580;57.670;12.006;2024-02-16T12:22:59;100274.81;;;18.04;100.00
13013;BME280;22580;57.670;12.006;2024-02-16T12:25:37;100251.34;;;18.13;100.00
13013;BME280;22580;57.670;12.006;2024-02-16T12:28:04;100253.84;;;17.90;100.00
13013;BME280;22580;57.670;12.006;2024-02-16T12:30:33;100255.22;;;17.94;100.00
13013;BME280;22580;57.670;12.006;2024-02-16T12:33:02;100274.50;;;18.07;100.00
13013;BME280;22580;57.670;12.006;2024-02-16T12:35:29;100268.75;;;18.18;100.00